Pamlico — WX6900 — position and weather

sailwx.info

Track history (hours):
 
Tides and Currents Weather Stations Pressure Air Temp Water Temp Dewpoint Dewpoint Depression Visibility Wind Speed Wind Dir Waves Ship Positions

Pamlico

Owner: PCS Phosphate, AURORA, NC. More information available from US FCC via Universal Licensing System and Coast Guard Vessel Documentation Center.

Last reported at 2018-Jan-18 03:42 UTC. Time now 2018-Jan-18 17:23 UTC.
Position N 34°58' W 076°41'.

Length 30 m; draft 2 m.

Type: Tug. MMSI: 367361220.

Date/timePositionNaut miles runAvg speedWind from/ knotsBaromVisibWave heightAir tempDewpointWater temp
2018-Jan-18 03:42N 34°58' W 076°41'2 6.5
2018-Jan-18 03:24N 34°56' W 076°39'2 6.0
2018-Jan-18 03:00N 34°54' W 076°41'3 5.3
2018-Jan-18 02:30N 34°52' W 076°41'3 5.9
2018-Jan-18 02:00N 34°49' W 076°41'3 6.3
2018-Jan-18 01:31N 34°45' W 076°40'3 5.9
2018-Jan-18 01:00N 34°43' W 076°42'0 0.2
2018-Jan-18 00:00N 34°43' W 076°42'0 5.0
2018-Jan-17 23:58N 34°43' W 076°42'  
2018-Jan-12 15:00N 34°54' W 076°41'3 6.7
2018-Jan-12 14:30N 34°51' W 076°41'4 7.4
2018-Jan-12 14:00N 34°47' W 076°41'3 6.4
2018-Jan-12 13:30N 34°44' W 076°41'1 1.4
2018-Jan-12 13:01N 34°43' W 076°42'0 0.1
2018-Jan-12 12:29N 34°43' W 076°42'1 1.1
2018-Jan-12 12:00N 34°44' W 076°42'3 5.8
2018-Jan-12 11:30N 34°47' W 076°41'2 5.0
2018-Jan-12 11:01N 34°49' W 076°41'2 4.2
2018-Jan-12 10:31N 34°51' W 076°41'2 4.0
2018-Jan-12 09:57N 34°53' W 076°41'3 4.6
2018-Jan-12 09:18N 34°56' W 076°39'  
Track history (hours):
 
Tides and Currents Weather Stations Pressure Air Temp Water Temp Dewpoint Dewpoint Depression Visibility Wind Speed Wind Dir Waves Ship Positions

Pamlico

Owner: PCS Phosphate, AURORA, NC. More information available from US FCC via Universal Licensing System and Coast Guard Vessel Documentation Center.

Last reported at 2018-Jan-18 03:42 UTC. Time now 2018-Jan-18 17:23 UTC.
Position N 34°58' W 076°41'.

Length 30 m; draft 2 m.

Type: Tug. MMSI: 367361220.

Date/timePositionNaut miles runAvg speedWind from/ knotsBaromVisibWave heightAir tempDewpointWater temp
2018-Jan-18 03:42N 34°58' W 076°41'2 6.5
2018-Jan-18 03:24N 34°56' W 076°39'2 6.0
2018-Jan-18 03:00N 34°54' W 076°41'3 5.3
2018-Jan-18 02:30N 34°52' W 076°41'3 5.9
2018-Jan-18 02:00N 34°49' W 076°41'3 6.3
2018-Jan-18 01:31N 34°45' W 076°40'3 5.9
2018-Jan-18 01:00N 34°43' W 076°42'0 0.2
2018-Jan-18 00:00N 34°43' W 076°42'0 5.0
2018-Jan-17 23:58N 34°43' W 076°42'  
2018-Jan-12 15:00N 34°54' W 076°41'3 6.7
2018-Jan-12 14:30N 34°51' W 076°41'4 7.4
2018-Jan-12 14:00N 34°47' W 076°41'3 6.4
2018-Jan-12 13:30N 34°44' W 076°41'1 1.4
2018-Jan-12 13:01N 34°43' W 076°42'0 0.1
2018-Jan-12 12:29N 34°43' W 076°42'1 1.1
2018-Jan-12 12:00N 34°44' W 076°42'3 5.8
2018-Jan-12 11:30N 34°47' W 076°41'2 5.0
2018-Jan-12 11:01N 34°49' W 076°41'2 4.2
2018-Jan-12 10:31N 34°51' W 076°41'2 4.0
2018-Jan-12 09:57N 34°53' W 076°41'3 4.6
2018-Jan-12 09:18N 34°56' W 076°39'  

Dump ship's entire track history